Grand Forks International Airport
KGFK : now visible

Airfield :











YOU CAN JOIN US ON...

 
LOGIN :

Register | Disclaimer

   EN    FR    IT 

 









Legend :    VFR   Marginal VFR   IFR   Intensive IFR   Very Intensive IFR
Visi :
Ceiling :
>= 8 km
>= 3000ft
5 to 8 km
1000 to 3000 ft
1500m to 5 km
500 to 1000 ft
800 to 1500m
200 to 500 ft
< 800m
< 200 ft
Symbols :   Thunderstorms  Fog  Heavy snow  Heavy precipitations  Wind > 20 kt







- Airport Elevation : 845 ft
- IATA code : GFK


KGFK - Grand Forks International

CURRENT METAR :
  • 191653Z 19013KT 10SM BKN220 14/06 A2992 RMK AO2 SLP137 T01390061

EXPIRED METARs :
  • 191553Z 17009KT 10SM BKN250 12/06 A2994 RMK AO2 SLP142 T01170061
  • 191453Z 20009KT 10SM SCT250 11/04 A2995 RMK AO2 SLP147 T01060044 58013

TAF KGFK
Valid from the 19 at 12:00 until the 20 at 12:00 UTC


191120Z 1912/2012 21005KT P6SM SKC
FM191900 20015G25KT P6SM SCT200
FM200200 18013KT P6SM SCT250
KZMP FIR / North America



MET'MAP, your aeronautical weather chart ! - Copyright ORBIFLY December 2007 - Disclaimer

ORBIFLY MET'MAP TEAM :

Programming & Development : Alexandra Zaïnal
Concept & Development : Baudouin d'Aumeries
Co-Development & Prog : Marc-Olivier Méhu
Technical & hardware support : Manuel Goepfert

Contact : metmap@orbifly.com




SOURCES & CREDITS :

   NOAA       Earth
Advisory